createdAt,value
2019-01-08T00:00:03.694Z,24.1
2019-01-08T00:00:51.498Z,24.3
2019-01-08T00:01:41.863Z,24.3
2019-01-08T00:02:32.473Z,24.3
2019-01-08T00:03:22.821Z,24
2019-01-08T00:04:12.000Z,23.6
2019-01-08T00:05:02.138Z,23.6
2019-01-08T00:05:52.795Z,23.9
2019-01-08T00:06:42.426Z,24.3
2019-01-08T00:07:31.850Z,24.5
2019-01-08T00:08:22.538Z,24.6
2019-01-08T00:09:11.580Z,24.7
2019-01-08T00:10:02.688Z,24.7
2019-01-08T00:10:52.979Z,24.6
2019-01-08T00:11:43.179Z,24.2
2019-01-08T00:12:32.812Z,24.1
2019-01-08T00:13:22.857Z,24.3
2019-01-08T00:14:12.377Z,24.6
2019-01-08T00:15:03.158Z,24.8
2019-01-08T00:33:06.748Z,23.3
2019-01-08T00:33:57.174Z,23.6
2019-01-08T00:34:46.858Z,24.1
2019-01-08T00:35:37.715Z,24.5
2019-01-08T00:36:26.138Z,24.2
2019-01-08T00:37:17.578Z,23.4
2019-01-08T00:38:07.161Z,23.4
2019-01-08T00:38:56.881Z,23.8
2019-01-08T00:39:46.945Z,24.1
2019-01-08T00:40:38.343Z,24.3
2019-01-08T00:41:42.500Z,24.4
2019-01-08T00:42:18.153Z,24.3
2019-01-08T00:43:08.338Z,24.2
2019-01-08T00:43:58.135Z,23.9
2019-01-08T00:44:47.865Z,23.6
2019-01-08T00:45:38.482Z,23.8
2019-01-08T00:46:27.712Z,24.2
2019-01-08T00:47:17.692Z,24.5
2019-01-08T00:48:07.077Z,24.7
2019-01-08T00:48:58.380Z,24.3
2019-01-08T00:49:48.655Z,23.6
2019-01-08T00:50:38.202Z,23.5
2019-01-08T00:51:26.898Z,23.8
2019-01-08T00:52:16.969Z,24.1
2019-01-08T00:53:06.498Z,24.3
2019-01-08T00:53:57.951Z,24.4
2019-01-08T00:54:49.776Z,24.3
2019-01-08T00:55:38.842Z,24
2019-01-08T00:56:28.537Z,23.9
2019-01-08T00:57:31.882Z,24.1
2019-01-08T00:58:08.414Z,24.6
2019-01-08T00:58:59.604Z,24.8
2019-01-08T00:59:48.871Z,24.4
2019-01-08T01:00:39.175Z,23.7
2019-01-08T01:01:28.978Z,23.6
2019-01-08T01:02:19.231Z,24
2019-01-08T01:03:07.953Z,24.3
2019-01-08T01:03:58.373Z,24.4
2019-01-08T01:04:48.555Z,24.5
2019-01-08T01:05:39.298Z,24.5
2019-01-08T01:06:30.026Z,24.4
2019-01-08T01:07:19.062Z,24.1
2019-01-08T01:08:09.355Z,24.2
2019-01-08T01:08:59.671Z,24.4
2019-01-08T01:09:49.253Z,24.7
2019-01-08T01:10:54.008Z,24.9
2019-01-08T01:11:30.148Z,24.3
2019-01-08T01:12:19.376Z,23.8
2019-01-08T01:13:09.956Z,23.7
2019-01-08T01:13:58.929Z,23.9
2019-01-08T01:14:50.434Z,24.3
2019-01-08T01:15:40.196Z,24.4
2019-01-08T01:16:29.916Z,24.4
2019-01-08T01:17:19.129Z,24.3
2019-01-08T01:18:08.935Z,24.1
2019-01-08T01:18:59.536Z,24.2
2019-01-08T01:19:50.153Z,24.6
2019-01-08T01:20:40.817Z,24.8
2019-01-08T01:21:30.300Z,24.4
2019-01-08T01:22:19.861Z,23.6
2019-01-08T01:23:10.191Z,23.6
2019-01-08T01:23:59.860Z,24
2019-01-08T01:24:50.315Z,24.3
2019-01-08T01:25:41.383Z,24.5
2019-01-08T01:26:30.625Z,24.6
2019-01-08T01:27:20.903Z,24.7
2019-01-08T01:28:10.400Z,24.6
2019-01-08T01:29:08.664Z,24.5
2019-01-08T01:29:50.975Z,24.2
2019-01-08T01:30:55.295Z,24.1
2019-01-08T01:31:29.548Z,24.4
2019-01-08T01:32:21.072Z,24.5
2019-01-08T01:33:10.595Z,24.7
2019-01-08T01:34:00.807Z,24.8
2019-01-08T01:34:51.495Z,24.7
2019-01-08T01:35:41.610Z,24.5
2019-01-08T01:36:30.679Z,24.2
2019-01-08T01:37:21.302Z,23.9
2019-01-08T01:38:10.609Z,24.1
2019-01-08T01:39:01.184Z,24.5
2019-01-08T01:39:51.217Z,24.7
2019-01-08T01:40:40.617Z,24.1
2019-01-08T01:41:31.374Z,23.5
2019-01-08T01:42:20.902Z,23.6
2019-01-08T01:43:11.572Z,24
2019-01-08T01:44:01.627Z,24.3
2019-01-08T01:44:51.481Z,24.5
2019-01-08T01:45:41.166Z,24.6
2019-01-08T01:46:31.979Z,24.6
2019-01-08T01:47:22.006Z,24.4
2019-01-08T01:48:12.265Z,24.2
2019-01-08T01:49:01.341Z,24.3
2019-01-08T01:49:52.734Z,24.6
2019-01-08T01:50:42.766Z,24.8
2019-01-08T01:51:31.709Z,24.6
2019-01-08T01:52:22.131Z,23.8
2019-01-08T01:53:12.066Z,23.6
2019-01-08T01:54:02.141Z,23.8
2019-01-08T01:54:52.508Z,24.2
2019-01-08T01:55:42.054Z,24.4
2019-01-08T01:56:31.796Z,24.4
2019-01-08T01:57:22.671Z,24.4
2019-01-08T01:58:12.437Z,24.2
2019-01-08T01:59:11.166Z,24.1
2019-01-08T01:59:52.564Z,24.4
2019-01-08T02:00:43.941Z,24.8
2019-01-08T02:01:33.233Z,24.8
2019-01-08T02:02:21.942Z,24.3
2019-01-08T02:03:12.633Z,23.6
2019-01-08T02:04:03.426Z,23.8
2019-01-08T02:04:53.763Z,24.1
2019-01-08T02:05:43.956Z,24.5
2019-01-08T02:06:33.096Z,24.7
2019-01-08T02:07:23.102Z,24.8
2019-01-08T02:08:13.440Z,24.8
2019-01-08T02:09:03.260Z,24.8
2019-01-08T02:09:52.952Z,24.7
2019-01-08T02:10:44.153Z,24.6
2019-01-08T02:11:33.073Z,24.6
2019-01-08T02:12:24.235Z,24.8
2019-01-08T02:13:13.315Z,25
2019-01-08T02:14:04.132Z,25
2019-01-08T02:14:53.849Z,24.4
2019-01-08T02:15:43.127Z,23.8
2019-01-08T02:16:33.852Z,23.9
2019-01-08T02:17:22.649Z,24.3
2019-01-08T02:18:13.501Z,24.6
2019-01-08T02:19:04.474Z,24.7
2019-01-08T02:19:53.607Z,24.8
2019-01-08T02:20:43.400Z,24.9
2019-01-08T02:21:34.961Z,24.9
2019-01-08T02:22:24.359Z,24.8
2019-01-08T02:23:14.011Z,24.6
2019-01-08T02:24:03.699Z,24.7
2019-01-08T02:24:53.271Z,24.8
2019-01-08T02:25:43.819Z,24.9
2019-01-08T02:26:34.357Z,24.9
2019-01-08T02:27:24.569Z,25
2019-01-08T02:28:13.821Z,24.9
2019-01-08T02:29:03.749Z,24.8
2019-01-08T02:29:54.574Z,24.6
2019-01-08T02:30:44.994Z,24.7
2019-01-08T02:31:35.058Z,25
2019-01-08T02:32:27.622Z,24.9
2019-01-08T02:33:15.092Z,24.3
2019-01-08T02:34:06.648Z,23.8
2019-01-08T02:34:54.669Z,24
2019-01-08T02:35:45.405Z,24.4
2019-01-08T02:36:35.666Z,24.8
2019-01-08T02:37:25.689Z,25
2019-01-08T02:38:16.021Z,24.6
2019-01-08T02:39:05.591Z,23.8
2019-01-08T02:39:55.867Z,23.8
2019-01-08T02:40:45.886Z,24.1
2019-01-08T02:41:38.375Z,24.3
2019-01-08T02:42:26.666Z,24.4
2019-01-08T02:43:16.650Z,24.5
2019-01-08T02:44:08.162Z,24.4
2019-01-08T02:44:57.560Z,24.3
2019-01-08T02:45:46.262Z,23.9
2019-01-08T02:46:37.361Z,23.7
2019-01-08T02:47:26.403Z,23.9
2019-01-08T02:48:16.426Z,24.4
2019-01-08T02:49:04.858Z,24.8
2019-01-08T02:49:55.987Z,24.6
2019-01-08T02:50:45.158Z,23.9
2019-01-08T02:51:35.105Z,23.6
2019-01-08T02:52:26.547Z,23.9
2019-01-08T02:53:15.908Z,24.2
2019-01-08T02:54:05.970Z,24.4
2019-01-08T02:54:57.483Z,24.5
2019-01-08T02:55:46.605Z,24.6
2019-01-08T02:56:35.282Z,24.6
2019-01-08T02:57:27.332Z,24.4
2019-01-08T02:58:16.874Z,24.2
2019-01-08T02:59:07.629Z,24.3
2019-01-08T02:59:57.349Z,24.6
2019-01-08T03:00:46.664Z,24.9
2019-01-08T03:01:36.225Z,24.9
2019-01-08T03:02:26.487Z,24.4
2019-01-08T03:03:16.550Z,23.8
2019-01-08T03:04:06.969Z,23.8
2019-01-08T03:04:59.599Z,24.1
2019-01-08T03:05:46.983Z,24.4
2019-01-08T03:06:37.326Z,24.5
2019-01-08T03:07:27.092Z,24.6
2019-01-08T03:08:17.174Z,24.6
2019-01-08T03:09:07.786Z,24.4
2019-01-08T03:09:56.713Z,24.1
2019-01-08T03:10:47.035Z,24
2019-01-08T03:11:37.934Z,24.3
2019-01-08T03:12:27.983Z,24.6
2019-01-08T03:13:17.766Z,24.8
2019-01-08T03:14:07.923Z,24.8
2019-01-08T03:14:58.148Z,24.8
2019-01-08T03:15:47.661Z,24.8
2019-01-08T03:16:37.790Z,24.6
2019-01-08T03:17:28.331Z,24.3
2019-01-08T03:18:17.608Z,24.4
2019-01-08T03:19:08.069Z,24.7
2019-01-08T03:19:58.251Z,24.9
2019-01-08T03:20:47.431Z,24.6
2019-01-08T03:21:37.514Z,23.8
2019-01-08T03:22:28.667Z,23.8
2019-01-08T03:23:17.888Z,24.2
2019-01-08T03:24:07.946Z,24.6
2019-01-08T03:24:58.293Z,24.8
2019-01-08T03:25:47.793Z,25
2019-01-08T03:26:38.728Z,25
2019-01-08T03:27:28.509Z,24.4
2019-01-08T03:28:19.463Z,23.8
2019-01-08T03:29:09.110Z,23.9
2019-01-08T03:29:58.292Z,24.1
2019-01-08T03:30:49.111Z,24.3
2019-01-08T03:31:39.600Z,24.5
2019-01-08T03:32:29.045Z,24.4
2019-01-08T03:33:18.562Z,24.2
2019-01-08T03:34:09.180Z,23.9
2019-01-08T03:35:00.176Z,24.2
2019-01-08T03:35:48.722Z,24.6
2019-01-08T03:36:39.087Z,24.9
2019-01-08T03:37:28.372Z,24.4
2019-01-08T03:38:18.907Z,23.8
2019-01-08T03:39:08.485Z,23.8
2019-01-08T03:40:00.257Z,24.1
2019-01-08T03:40:50.114Z,24.5
2019-01-08T03:41:54.519Z,24.8
2019-01-08T03:42:28.899Z,24.9
2019-01-08T03:43:19.561Z,24.9
2019-01-08T03:44:09.934Z,24.9
2019-01-08T03:45:00.429Z,24.9
2019-01-08T03:45:49.957Z,24.7
2019-01-08T03:46:40.030Z,24.5
2019-01-08T03:47:30.323Z,24.6
2019-01-08T03:48:20.121Z,24.9
2019-01-08T03:49:10.719Z,25.1
2019-01-08T03:49:59.936Z,24.9
2019-01-08T03:50:50.126Z,24.2
2019-01-08T03:51:40.104Z,23.9
2019-01-08T03:52:30.401Z,24.1
2019-01-08T03:53:19.916Z,24.5
2019-01-08T03:54:10.328Z,24.8
2019-01-08T03:55:00.444Z,24.9
2019-01-08T03:55:50.901Z,25
2019-01-08T03:56:41.086Z,24.9
2019-01-08T03:57:30.431Z,24.9
2019-01-08T03:58:19.696Z,24.9
2019-01-08T03:59:11.388Z,24.7
2019-01-08T04:00:00.083Z,24.6
2019-01-08T04:00:51.223Z,24.7
2019-01-08T04:01:41.363Z,24.9
2019-01-08T04:02:31.626Z,25.1
2019-01-08T04:03:20.930Z,24.7
2019-01-08T04:04:11.520Z,24
2019-01-08T04:05:01.868Z,23.9
2019-01-08T04:05:51.027Z,24.3
2019-01-08T04:06:41.888Z,24.7
2019-01-08T04:07:30.888Z,85
2019-01-08T04:08:20.355Z,25.1
2019-01-08T04:09:11.263Z,25.1
2019-01-08T04:10:01.325Z,24.6
2019-01-08T04:10:51.348Z,23.9
2019-01-08T04:11:41.190Z,24
2019-01-08T04:12:32.060Z,24.3
2019-01-08T04:13:21.521Z,24.5
2019-01-08T04:14:12.662Z,24.7
2019-01-08T04:15:01.640Z,24.8
2019-01-08T04:15:50.595Z,24.8
2019-01-08T04:16:41.487Z,24.8
2019-01-08T04:17:31.805Z,24.6
2019-01-08T04:18:23.433Z,24.6
2019-01-08T04:19:12.257Z,24.7
2019-01-08T04:20:02.389Z,24.9
2019-01-08T04:20:52.682Z,25
2019-01-08T04:21:41.524Z,25.1
2019-01-08T04:22:31.572Z,25.1
2019-01-08T04:23:22.114Z,25
2019-01-08T04:24:11.979Z,24.9
2019-01-08T04:25:02.366Z,24.6
2019-01-08T04:25:53.284Z,24.7
2019-01-08T04:26:42.982Z,25
2019-01-08T04:27:32.780Z,25
2019-01-08T04:28:23.074Z,24.5
2019-01-08T04:29:12.310Z,23.9
2019-01-08T04:30:03.119Z,24
2019-01-08T04:30:52.719Z,24.4
2019-01-08T04:31:42.569Z,24.8
2019-01-08T04:32:33.076Z,25.1
2019-01-08T04:33:22.431Z,24.8
2019-01-08T04:34:13.182Z,24.1
2019-01-08T04:35:03.299Z,23.8
2019-01-08T04:35:53.828Z,24.1
2019-01-08T04:36:43.086Z,24.4
2019-01-08T04:37:32.943Z,24.6
2019-01-08T04:38:23.217Z,24.6
2019-01-08T04:39:13.838Z,24.7
2019-01-08T04:40:03.647Z,24.6
2019-01-08T04:40:53.628Z,24.4
2019-01-08T04:41:43.234Z,24.1
2019-01-08T04:42:34.368Z,24.3
2019-01-08T04:43:24.383Z,24.8
2019-01-08T04:44:12.291Z,25.2
2019-01-08T04:45:04.803Z,24.5
2019-01-08T05:02:20.225Z,22.6
2019-01-08T05:03:11.319Z,22.4
2019-01-08T05:04:00.709Z,22.4
2019-01-08T05:04:51.135Z,22.2
2019-01-08T05:05:41.199Z,22.1
2019-01-08T05:06:30.174Z,21.9
2019-01-08T05:07:21.674Z,21.8
2019-01-08T05:08:10.819Z,21.8
2019-01-08T05:09:00.712Z,21.6
2019-01-08T05:09:51.202Z,21.5
2019-01-08T05:10:40.498Z,21.4
2019-01-08T05:11:31.076Z,21.3
2019-01-08T05:13:11.111Z,20.9
2019-01-08T05:14:01.527Z,20.9
2019-01-08T05:14:51.322Z,20.8
2019-01-08T05:15:41.583Z,20.6
2019-01-08T05:16:31.431Z,20.5
2019-01-08T05:17:22.245Z,20.4
2019-01-08T05:18:12.149Z,20.3
2019-01-08T05:19:01.881Z,20.1
2019-01-08T05:19:51.846Z,20.1
2019-01-08T05:20:42.277Z,19.9
2019-01-08T05:21:32.047Z,19.8
2019-01-08T05:22:20.921Z,19.7
2019-01-08T05:23:12.413Z,19.6
2019-01-08T05:24:02.738Z,19.5
2019-01-08T05:24:52.193Z,19.4
2019-01-08T05:25:42.066Z,19.4
2019-01-08T05:26:32.571Z,19.3
2019-01-08T05:27:22.417Z,19.1
2019-01-08T05:28:12.421Z,19.1
2019-01-08T05:29:02.934Z,19
2019-01-08T05:30:12.880Z,18.9
2019-01-08T05:31:32.373Z,18.8
2019-01-08T05:32:22.120Z,18.6
2019-01-08T05:33:13.075Z,18.6
2019-01-08T05:34:02.830Z,18.4
2019-01-08T05:34:53.427Z,18.3
2019-01-08T05:35:42.684Z,18.3
2019-01-08T05:36:32.982Z,18.2
2019-01-08T05:37:23.062Z,18.1
2019-01-08T05:38:12.630Z,18.1
2019-01-08T05:39:02.742Z,18
2019-01-08T05:39:53.788Z,17.8
2019-01-08T05:40:43.277Z,17.8
2019-01-08T05:41:33.052Z,17.7
2019-01-08T05:42:23.187Z,17.6
2019-01-08T05:43:13.704Z,17.5
2019-01-08T05:44:03.510Z,17.4
2019-01-08T05:44:53.290Z,17.4
2019-01-08T05:45:43.894Z,17.3
2019-01-08T05:46:34.182Z,17.3
2019-01-08T05:47:23.820Z,17.2
2019-01-08T05:48:13.264Z,17.1
2019-01-08T05:49:04.161Z,17.1
2019-01-08T05:50:43.119Z,16.9
2019-01-08T05:51:33.514Z,16.9
2019-01-08T05:52:24.342Z,16.8
2019-01-08T05:53:14.104Z,16.8
2019-01-08T05:54:04.499Z,16.7
2019-01-08T05:54:53.384Z,16.6
2019-01-08T05:55:44.567Z,16.6
2019-01-08T05:56:33.501Z,16.5
2019-01-08T05:57:22.986Z,16.4
2019-01-08T05:58:14.961Z,16.4
2019-01-08T05:59:04.823Z,16.3
2019-01-08T05:59:54.834Z,16.3
2019-01-08T06:00:45.146Z,16.3
2019-01-08T06:01:36.529Z,16.2
2019-01-08T06:02:24.724Z,16.1
2019-01-08T06:03:15.324Z,16.1
2019-01-08T06:04:05.363Z,16.1
2019-01-08T06:04:53.846Z,16
2019-01-08T06:05:44.959Z,15.9
2019-01-08T06:06:34.499Z,15.9
2019-01-08T06:07:24.493Z,15.8
2019-01-08T06:08:14.819Z,15.8
2019-01-08T06:09:05.773Z,15.8
2019-01-08T06:09:54.105Z,15.7
2019-01-08T06:10:44.431Z,15.7
2019-01-08T06:11:35.120Z,15.6
2019-01-08T06:12:25.438Z,15.6
2019-01-08T06:13:16.033Z,15.5
2019-01-08T06:14:04.966Z,15.5
2019-01-08T06:14:54.035Z,15.4
2019-01-08T06:15:45.597Z,15.4
2019-01-08T06:16:36.262Z,15.4
2019-01-08T06:17:25.973Z,15.4
2019-01-08T06:18:15.440Z,15.3
2019-01-08T06:19:06.360Z,15.3
2019-01-08T06:19:57.748Z,15.2
2019-01-08T06:20:45.952Z,15.2
2019-01-08T06:21:35.403Z,15.1
2019-01-08T06:22:26.382Z,15.1
2019-01-08T06:23:15.877Z,15
2019-01-08T06:24:06.143Z,15
2019-01-08T06:24:56.075Z,15
2019-01-08T06:25:46.296Z,14.9
2019-01-08T06:26:35.562Z,14.9
2019-01-08T06:27:26.097Z,14.9
2019-01-08T06:28:15.672Z,14.8
2019-01-08T06:29:06.854Z,14.8
2019-01-08T06:29:55.814Z,14.8
2019-01-08T06:30:46.332Z,14.8
2019-01-08T06:31:36.922Z,14.7
2019-01-08T06:32:26.274Z,14.7
2019-01-08T06:33:17.315Z,14.6
2019-01-08T06:34:06.982Z,14.6
2019-01-08T06:34:55.309Z,14.6
2019-01-08T06:35:47.239Z,14.6
2019-01-08T06:36:36.826Z,14.5
2019-01-08T06:37:27.101Z,14.5
2019-01-08T06:38:18.540Z,14.4
2019-01-08T06:39:06.884Z,14.4
2019-01-08T06:39:56.453Z,14.4
2019-01-08T06:40:46.544Z,14.4
2019-01-08T06:41:36.881Z,14.3
2019-01-08T06:42:27.175Z,14.3
2019-01-08T06:43:19.244Z,14.3
2019-01-08T06:44:06.984Z,14.3
2019-01-08T06:44:57.059Z,14.3
2019-01-08T06:45:46.806Z,14.3
2019-01-08T06:46:46.083Z,14.2
2019-01-08T06:47:27.171Z,14.2
2019-01-08T06:48:16.875Z,14.1
2019-01-08T06:49:08.430Z,14.1
2019-01-08T06:49:57.673Z,14.1
2019-01-08T06:50:46.937Z,14.1
2019-01-08T06:51:37.723Z,14.1
2019-01-08T06:52:26.548Z,14.1
2019-01-08T06:53:17.673Z,14
2019-01-08T06:54:08.231Z,13.9
2019-01-08T06:54:57.748Z,14
2019-01-08T06:55:48.045Z,13.9
2019-01-08T06:56:36.772Z,13.9
2019-01-08T06:57:28.088Z,13.9
2019-01-08T06:58:18.508Z,13.9
2019-01-08T06:59:08.340Z,13.8
2019-01-08T06:59:58.080Z,13.8
2019-01-08T07:00:48.365Z,13.8
2019-01-08T07:01:37.878Z,13.8
2019-01-08T07:02:28.940Z,13.8
2019-01-08T07:03:18.798Z,13.8
2019-01-08T07:04:08.899Z,13.8
2019-01-08T07:04:57.925Z,13.7
2019-01-08T07:05:48.880Z,13.7
2019-01-08T07:06:38.960Z,13.7
2019-01-08T07:07:29.052Z,13.7
2019-01-08T07:08:19.375Z,13.6
2019-01-08T07:09:09.747Z,13.6
2019-01-08T07:09:59.457Z,13.6
2019-01-08T07:10:48.754Z,13.6
2019-01-08T07:11:39.294Z,13.6
2019-01-08T07:12:29.632Z,13.6
2019-01-08T07:13:19.420Z,13.6
2019-01-08T07:14:08.729Z,13.6
2019-01-08T07:14:58.509Z,13.5
2019-01-08T07:15:49.375Z,13.5
2019-01-08T07:16:39.714Z,13.4
2019-01-08T07:17:29.443Z,13.5
2019-01-08T07:18:19.814Z,13.4
2019-01-08T07:19:08.763Z,13.4
2019-01-08T07:19:59.446Z,13.4
2019-01-08T07:20:49.425Z,13.4
2019-01-08T07:21:39.506Z,13.4
2019-01-08T07:22:28.702Z,13.4
2019-01-08T07:23:19.634Z,13.4
2019-01-08T07:24:08.896Z,13.4
2019-01-08T07:25:00.256Z,13.4
2019-01-08T07:25:49.475Z,13.3
2019-01-08T07:26:39.531Z,13.3
2019-01-08T07:27:29.313Z,13.3
2019-01-08T07:28:19.104Z,13.3
2019-01-08T07:29:09.706Z,13.3
2019-01-08T07:30:00.161Z,13.3
2019-01-08T07:30:49.561Z,13.3
2019-01-08T07:31:40.813Z,13.3
2019-01-08T07:32:29.687Z,13.3
2019-01-08T07:33:20.263Z,13.3
2019-01-08T07:34:10.036Z,13.3
2019-01-08T07:35:00.983Z,13.2
2019-01-08T07:35:50.700Z,13.2
2019-01-08T07:36:41.092Z,13.2
2019-01-08T07:37:30.503Z,13.2
2019-01-08T07:38:19.758Z,13.2
2019-01-08T07:39:09.822Z,13.2
2019-01-08T07:40:00.690Z,13.1
2019-01-08T07:40:50.625Z,13.1
2019-01-08T07:41:41.080Z,13.1
2019-01-08T07:42:31.130Z,13.1
2019-01-08T07:43:20.643Z,13.1
2019-01-08T07:44:10.168Z,13.1
2019-01-08T07:45:00.492Z,13.1
2019-01-08T07:45:51.192Z,13.1
2019-01-08T07:46:43.220Z,13
2019-01-08T07:47:31.480Z,13
2019-01-08T07:48:21.268Z,13
2019-01-08T07:49:11.020Z,13
2019-01-08T07:50:01.226Z,13
2019-01-08T07:50:50.875Z,13
2019-01-08T07:51:41.472Z,12.9
2019-01-08T07:52:32.772Z,12.9
2019-01-08T07:53:22.417Z,12.9
2019-01-08T07:54:11.619Z,12.9
2019-01-08T07:55:01.249Z,12.9
2019-01-08T07:55:52.039Z,12.9
2019-01-08T07:56:41.522Z,12.9
2019-01-08T07:57:32.209Z,12.9
2019-01-08T07:58:21.354Z,12.9
2019-01-08T07:59:12.039Z,12.9
2019-01-08T08:00:02.118Z,12.9
2019-01-08T08:00:58.462Z,12.9
2019-01-08T08:01:41.946Z,12.8
2019-01-08T08:02:32.031Z,12.8
2019-01-08T08:03:21.711Z,12.8
2019-01-08T08:04:12.286Z,12.8
2019-01-08T08:05:02.646Z,12.8
2019-01-08T08:05:51.969Z,12.8
2019-01-08T08:06:43.358Z,12.8
2019-01-08T08:07:32.811Z,12.8
2019-01-08T08:08:23.136Z,12.8
2019-01-08T08:09:12.926Z,12.8
2019-01-08T08:10:02.153Z,12.8
2019-01-08T08:10:53.001Z,12.8
2019-01-08T08:11:42.793Z,12.8
2019-01-08T08:12:32.568Z,12.8
2019-01-08T08:13:23.693Z,12.8
2019-01-08T08:14:11.616Z,12.8
2019-01-08T08:15:03.531Z,12.7
2019-01-08T08:15:53.738Z,12.7
2019-01-08T08:16:43.213Z,12.7
2019-01-08T08:17:32.620Z,12.7
2019-01-08T08:18:23.246Z,12.8
2019-01-08T08:19:15.873Z,12.7
2019-01-08T08:20:03.566Z,12.7
2019-01-08T08:20:52.630Z,12.7
2019-01-08T08:21:44.845Z,12.7
2019-01-08T08:22:33.760Z,12.6
2019-01-08T08:23:23.685Z,12.6
2019-01-08T08:24:14.102Z,12.6
2019-01-08T08:25:04.605Z,12.6
2019-01-08T08:25:54.655Z,12.6
2019-01-08T08:26:44.390Z,12.6
2019-01-08T08:27:34.900Z,12.6
2019-01-08T08:28:23.937Z,12.6
2019-01-08T08:29:14.158Z,12.6
2019-01-08T08:30:04.210Z,12.6
2019-01-08T08:31:02.514Z,12.6
2019-01-08T08:31:44.697Z,12.6
2019-01-08T08:32:34.932Z,12.6
2019-01-08T08:33:24.033Z,12.6
2019-01-08T08:34:13.931Z,12.6
2019-01-08T08:35:14.326Z,12.6
2019-01-08T08:35:55.037Z,12.6
2019-01-08T08:36:44.998Z,12.6
2019-01-08T08:37:35.089Z,12.6
2019-01-08T08:38:25.069Z,12.6
2019-01-08T08:39:15.242Z,12.6
2019-01-08T08:40:04.344Z,12.6
2019-01-08T08:40:55.244Z,12.6
2019-01-08T08:41:45.939Z,12.6
2019-01-08T08:42:34.542Z,12.6
2019-01-08T08:43:25.409Z,12.6
2019-01-08T08:44:15.402Z,12.6
2019-01-08T08:45:04.681Z,12.5
2019-01-08T08:45:55.831Z,12.5
2019-01-08T08:46:46.124Z,12.6
2019-01-08T08:47:35.132Z,12.6
2019-01-08T08:48:25.693Z,12.6
2019-01-08T08:49:15.829Z,12.6
2019-01-08T08:50:05.111Z,12.6
2019-01-08T08:50:55.603Z,12.6
2019-01-08T08:51:45.696Z,12.6
2019-01-08T08:52:35.456Z,12.6
2019-01-08T08:53:26.223Z,12.5
2019-01-08T08:54:17.008Z,12.5
2019-01-08T08:55:06.288Z,12.6
2019-01-08T08:55:55.502Z,12.5
2019-01-08T08:56:46.346Z,12.5
2019-01-08T08:57:35.864Z,12.5
2019-01-08T08:58:26.158Z,12.5
2019-01-08T08:59:16.510Z,12.5
2019-01-08T09:00:06.873Z,12.6
2019-01-08T09:00:56.513Z,12.5
2019-01-08T09:16:50.724Z,12.4
2019-01-08T09:17:41.542Z,12.4
2019-01-08T09:18:30.317Z,12.4
2019-01-08T09:19:21.402Z,12.4
2019-01-08T09:20:10.422Z,12.4
2019-01-08T09:21:01.264Z,12.4
2019-01-08T09:21:51.687Z,12.4
2019-01-08T09:22:40.764Z,12.4
2019-01-08T09:23:31.399Z,12.4
2019-01-08T09:24:20.345Z,12.4
2019-01-08T09:25:10.962Z,12.4
2019-01-08T09:26:00.450Z,12.4
2019-01-08T09:26:51.134Z,12.4
2019-01-08T09:27:41.366Z,12.4
2019-01-08T09:28:32.064Z,12.4
2019-01-08T09:29:21.199Z,12.4
2019-01-08T09:30:11.559Z,12.4
2019-01-08T09:31:02.434Z,12.4
2019-01-08T09:31:52.006Z,12.4
2019-01-08T09:32:41.481Z,12.4
2019-01-08T09:33:31.809Z,12.4
2019-01-08T09:34:22.118Z,12.4
2019-01-08T09:35:11.603Z,12.4
2019-01-08T09:36:02.066Z,12.4
2019-01-08T09:36:51.203Z,12.4
2019-01-08T09:37:42.071Z,12.4
2019-01-08T09:38:32.125Z,12.4
2019-01-08T09:39:21.893Z,12.4
2019-01-08T09:40:11.137Z,12.4
2019-01-08T09:41:00.901Z,12.4
2019-01-08T09:41:52.122Z,12.4
2019-01-08T09:42:44.024Z,12.4
2019-01-08T09:43:31.982Z,12.4
2019-01-08T09:44:21.426Z,12.4
2019-01-08T09:45:11.205Z,12.4
2019-01-08T09:46:02.427Z,12.4
2019-01-08T09:46:53.293Z,12.4
2019-01-08T09:47:42.230Z,12.4
2019-01-08T09:48:32.562Z,12.4
2019-01-08T09:49:22.551Z,12.4
2019-01-08T09:50:12.618Z,12.4
2019-01-08T09:51:02.958Z,12.4
2019-01-08T09:51:52.194Z,12.4
2019-01-08T09:52:42.282Z,12.4
2019-01-08T09:53:33.398Z,12.4
2019-01-08T09:54:23.202Z,12.4
2019-01-08T09:55:12.435Z,12.4
2019-01-08T09:56:03.275Z,12.4
2019-01-08T09:56:52.936Z,12.4
2019-01-08T09:57:43.657Z,12.4
2019-01-08T09:58:33.699Z,12.4
2019-01-08T09:59:23.826Z,12.4
2019-01-08T10:00:14.162Z,12.4
2019-01-08T10:01:02.800Z,12.4
2019-01-08T10:01:54.379Z,12.4
2019-01-08T10:02:43.177Z,12.4
2019-01-08T10:03:33.889Z,12.4
2019-01-08T10:04:24.397Z,12.4
2019-01-08T10:05:13.354Z,12.4
2019-01-08T10:06:04.395Z,12.4
2019-01-08T10:06:54.042Z,12.4
2019-01-08T10:07:43.534Z,12.4
2019-01-08T10:08:34.179Z,12.4
2019-01-08T10:09:24.551Z,12.4
2019-01-08T10:10:13.854Z,12.4
2019-01-08T10:11:04.309Z,12.4
2019-01-08T10:11:54.358Z,12.4
2019-01-08T10:12:44.141Z,12.4
2019-01-08T10:13:34.828Z,12.4
2019-01-08T10:14:24.921Z,12.4
2019-01-08T10:15:14.343Z,12.3
2019-01-08T10:16:04.453Z,12.4
2019-01-08T10:16:54.979Z,12.4
2019-01-08T10:17:44.513Z,12.4
2019-01-08T10:18:34.586Z,12.4
2019-01-08T10:19:24.906Z,12.4
2019-01-08T10:20:15.016Z,12.4
2019-01-08T10:21:04.261Z,12.4
2019-01-08T10:21:55.698Z,12.4
2019-01-08T10:22:44.576Z,12.4
2019-01-08T10:23:34.980Z,12.4
2019-01-08T10:24:25.105Z,12.4
2019-01-08T10:25:15.556Z,12.4
2019-01-08T10:26:05.343Z,12.4
2019-01-08T10:26:54.840Z,12.4
2019-01-08T10:27:45.142Z,12.4
2019-01-08T10:28:35.736Z,12.4
2019-01-08T10:29:25.608Z,12.4
2019-01-08T10:30:14.823Z,12.4
2019-01-08T10:31:05.655Z,12.4
2019-01-08T10:31:55.152Z,12.4
2019-01-08T10:32:45.755Z,12.4
2019-01-08T10:33:35.117Z,12.4
2019-01-08T10:34:26.215Z,12.4
2019-01-08T10:35:15.115Z,12.4
2019-01-08T10:36:05.799Z,12.4
2019-01-08T10:36:56.692Z,12.4
2019-01-08T10:37:45.545Z,12.4
2019-01-08T10:38:35.722Z,12.4
2019-01-08T10:39:25.805Z,12.4
2019-01-08T10:40:16.079Z,12.4
2019-01-08T10:41:05.602Z,12.4
2019-01-08T10:41:56.184Z,12.4
2019-01-08T10:42:45.969Z,12.4
2019-01-08T10:43:35.384Z,12.4
2019-01-08T10:44:25.781Z,12.4
2019-01-08T10:45:15.864Z,12.4
2019-01-08T10:46:05.577Z,12.4
2019-01-08T10:46:56.997Z,12.4
2019-01-08T10:47:47.629Z,12.4
2019-01-08T10:48:37.194Z,12.4
2019-01-08T10:49:27.017Z,12.4
2019-01-08T10:50:16.671Z,12.4
2019-01-08T10:51:06.501Z,12.4
2019-01-08T10:51:55.974Z,12.4
2019-01-08T10:52:47.515Z,12.4
2019-01-08T10:53:35.595Z,12.4
2019-01-08T10:54:26.860Z,12.4
2019-01-08T10:55:15.656Z,12.4
2019-01-08T10:56:06.626Z,12.4
2019-01-08T10:56:56.638Z,12.4
2019-01-08T10:57:48.016Z,12.4
2019-01-08T10:58:39.456Z,12.4
2019-01-08T10:59:26.606Z,12.4
2019-01-08T11:00:17.683Z,12.4
2019-01-08T11:01:07.758Z,12.4
2019-01-08T11:01:58.301Z,12.4
2019-01-08T11:02:47.322Z,12.4
2019-01-08T11:03:37.090Z,12.4
2019-01-08T11:04:28.304Z,12.4
2019-01-08T11:05:17.992Z,12.4
2019-01-08T11:06:06.930Z,12.4
2019-01-08T11:06:58.410Z,12.4
2019-01-08T11:07:47.315Z,12.4
2019-01-08T11:08:38.296Z,12.4
2019-01-08T11:09:28.610Z,12.4
2019-01-08T11:10:18.310Z,12.4
2019-01-08T11:11:08.077Z,12.4
2019-01-08T11:11:58.608Z,12.4
2019-01-08T11:12:49.095Z,12.4
2019-01-08T11:13:37.495Z,12.4
2019-01-08T11:14:27.995Z,12.4
2019-01-08T11:15:18.942Z,12.4
2019-01-08T11:16:07.655Z,12.4
2019-01-08T11:16:58.599Z,12.4
2019-01-08T11:17:47.837Z,12.4
2019-01-08T11:18:37.902Z,12.4
2019-01-08T11:19:28.689Z,12.4
2019-01-08T11:20:18.397Z,12.4
2019-01-08T11:21:08.835Z,12.4
2019-01-08T11:21:59.987Z,12.4
2019-01-08T11:22:48.322Z,12.3
2019-01-08T11:23:39.192Z,12.3
2019-01-08T11:24:28.694Z,12.3
2019-01-08T11:25:18.544Z,12.3
2019-01-08T11:26:09.149Z,12.3
2019-01-08T11:26:59.242Z,12.3
2019-01-08T11:27:49.454Z,12.3
2019-01-08T11:28:39.380Z,12.3
2019-01-08T11:29:29.124Z,12.3
2019-01-08T11:30:20.001Z,12.3
2019-01-08T11:31:08.952Z,12.3
2019-01-08T11:31:59.986Z,12.3
2019-01-08T11:32:49.221Z,12.3
2019-01-08T11:33:39.639Z,12.3
2019-01-08T11:34:29.636Z,12.3
2019-01-08T11:35:19.196Z,12.3
2019-01-08T11:36:09.324Z,12.3
2019-01-08T11:36:59.442Z,12.3
2019-01-08T11:37:50.121Z,12.2
2019-01-08T11:38:40.251Z,12.2
2019-01-08T11:39:30.314Z,12.2
2019-01-08T11:40:22.051Z,12.2
2019-01-08T11:41:10.203Z,12.2
2019-01-08T11:41:59.959Z,12.2
2019-01-08T11:42:50.206Z,12.2
2019-01-08T11:43:40.521Z,12.1
2019-01-08T11:44:32.192Z,12.1
2019-01-08T11:45:20.423Z,12.2
2019-01-08T11:46:10.085Z,12.1
2019-01-08T11:47:00.806Z,12.1
2019-01-08T11:47:53.288Z,12.1
2019-01-08T11:48:39.313Z,12.1
2019-01-08T11:49:30.914Z,12.1
2019-01-08T11:50:21.050Z,12.1
2019-01-08T11:51:10.935Z,12.1
2019-01-08T11:52:00.622Z,12.1
2019-01-08T11:52:53.430Z,12.1
2019-01-08T11:53:43.273Z,12.1
2019-01-08T11:54:31.847Z,12.1
2019-01-08T11:55:21.112Z,12.1
2019-01-08T11:56:10.790Z,12.1
2019-01-08T11:57:01.535Z,12.1
2019-01-08T11:57:52.040Z,12.1
2019-01-08T11:58:42.218Z,12.1
2019-01-08T11:59:31.939Z,12